createdAt,value
2023-03-04T00:01:54.754Z,49.97
2023-03-04T00:04:56.788Z,45.00
2023-03-04T00:07:58.854Z,46.13
2023-03-04T00:11:00.919Z,39.83
2023-03-04T00:14:03.176Z,45.50
2023-03-04T00:17:05.504Z,57.15
2023-03-04T00:20:08.523Z,55.00
2023-03-04T00:23:10.712Z,50.08
2023-03-04T00:26:13.629Z,47.33
2023-03-04T00:29:17.817Z,43.08
2023-03-04T00:32:20.045Z,44.00
2023-03-04T00:35:22.198Z,47.10
2023-03-04T00:38:24.322Z,43.60
2023-03-04T00:41:26.500Z,51.88
2023-03-04T00:44:28.570Z,46.13
2023-03-04T00:47:30.926Z,44.38
2023-03-04T00:50:33.258Z,54.10
2023-03-04T00:53:35.408Z,40.97
2023-03-04T00:56:37.467Z,46.40
2023-03-04T00:59:40.852Z,46.95
2023-03-04T01:02:43.023Z,47.05
2023-03-04T01:05:45.330Z,70.10
2023-03-04T01:08:47.443Z,63.83
2023-03-04T01:11:49.634Z,48.47
2023-03-04T01:14:52.718Z,46.05
2023-03-04T01:17:55.564Z,42.28
2023-03-04T01:20:58.394Z,47.93
2023-03-04T01:24:00.539Z,50.40
2023-03-04T01:27:02.990Z,53.03
2023-03-04T01:30:05.903Z,43.63
2023-03-04T01:33:08.332Z,45.50
2023-03-04T01:36:11.664Z,48.57
2023-03-04T01:39:14.431Z,60.78
2023-03-04T01:42:24.887Z,45.05
2023-03-04T01:45:27.162Z,48.90
2023-03-04T01:48:34.164Z,43.45
2023-03-04T01:51:36.208Z,43.90
2023-03-04T01:54:38.312Z,44.47
2023-03-04T01:57:40.387Z,49.17
2023-03-04T02:00:42.658Z,49.75
2023-03-04T02:03:44.720Z,48.20
2023-03-04T02:06:47.883Z,48.53
2023-03-04T02:09:49.991Z,49.83
2023-03-04T02:12:52.728Z,46.45
2023-03-04T02:15:54.990Z,44.97
2023-03-04T02:18:58.194Z,52.47
2023-03-04T02:22:03.061Z,45.20
2023-03-04T02:25:15.675Z,46.90
2023-03-04T02:28:17.855Z,52.85
2023-03-04T02:31:59.027Z,45.95
2023-03-04T02:35:01.335Z,46.08
2023-03-04T02:38:03.467Z,45.60
2023-03-04T02:41:12.722Z,50.70
2023-03-04T02:44:40.195Z,44.92
2023-03-04T02:47:42.321Z,44.55
2023-03-04T02:50:48.208Z,47.80
2023-03-04T02:53:50.251Z,47.93
2023-03-04T02:56:54.997Z,44.20
2023-03-04T02:59:58.543Z,46.88
2023-03-04T03:03:03.587Z,49.67
2023-03-04T03:06:06.038Z,52.40
2023-03-04T03:09:08.849Z,51.00
2023-03-04T03:12:11.713Z,49.90
2023-03-04T03:15:14.250Z,52.28
2023-03-04T03:18:16.653Z,44.25
2023-03-04T03:21:18.888Z,50.67
2023-03-04T03:24:20.954Z,50.17
2023-03-04T03:27:23.063Z,50.65
2023-03-04T03:30:26.136Z,50.03
2023-03-04T03:33:28.620Z,49.30
2023-03-04T03:36:30.791Z,62.88
2023-03-04T03:39:33.140Z,59.67
2023-03-04T03:42:35.432Z,54.58
2023-03-04T03:45:37.816Z,58.13
2023-03-04T03:48:40.123Z,56.90
2023-03-04T03:51:42.416Z,62.92
2023-03-04T03:54:44.525Z,64.13
2023-03-04T03:57:46.672Z,64.88
2023-03-04T04:00:49.071Z,55.95
2023-03-04T04:03:51.462Z,54.38
2023-03-04T04:06:53.683Z,56.53
2023-03-04T04:09:55.800Z,53.53
2023-03-04T04:12:58.050Z,64.95
2023-03-04T04:16:00.125Z,59.25
2023-03-04T04:19:02.189Z,58.40
2023-03-04T04:22:04.460Z,62.30
2023-03-04T04:25:08.948Z,62.57
2023-03-04T04:28:11.082Z,64.20
2023-03-04T04:31:13.174Z,68.78
2023-03-04T04:34:15.449Z,65.95
2023-03-04T04:37:17.527Z,59.30
2023-03-04T04:40:19.943Z,57.27
2023-03-04T04:43:22.416Z,58.13
2023-03-04T04:46:24.494Z,61.80
2023-03-04T04:49:26.774Z,63.63
2023-03-04T04:52:29.149Z,55.55
2023-03-04T04:55:31.258Z,59.63
2023-03-04T04:58:33.449Z,59.53
2023-03-04T05:01:36.215Z,67.80
2023-03-04T05:04:38.350Z,55.88
2023-03-04T05:07:40.508Z,68.72
2023-03-04T05:10:42.976Z,56.37
2023-03-04T05:13:45.403Z,66.28
2023-03-04T05:16:47.395Z,62.50
2023-03-04T05:19:49.522Z,57.97
2023-03-04T05:22:52.246Z,56.28
2023-03-04T05:25:54.578Z,70.10
2023-03-04T05:28:56.649Z,63.25
2023-03-04T05:31:58.889Z,63.58
2023-03-04T05:35:00.960Z,59.72
2023-03-04T05:38:05.622Z,60.50
2023-03-04T05:41:08.196Z,61.10
2023-03-04T05:44:10.360Z,65.28
2023-03-04T05:47:12.368Z,68.18
2023-03-04T05:50:14.562Z,60.13
2023-03-04T05:53:16.805Z,64.90
2023-03-04T05:56:20.592Z,61.97
2023-03-04T05:59:23.662Z,56.88
2023-03-04T06:02:25.836Z,57.85
2023-03-04T06:05:27.835Z,50.65
2023-03-04T06:08:30.083Z,54.80
2023-03-04T06:11:33.392Z,53.80
2023-03-04T06:14:36.295Z,56.63
2023-03-04T06:17:42.168Z,58.25
2023-03-04T06:20:45.507Z,60.55
2023-03-04T06:23:47.833Z,54.80
2023-03-04T06:26:49.899Z,54.77
2023-03-04T06:29:51.982Z,66.50
2023-03-04T06:32:54.071Z,59.95
2023-03-04T06:35:57.418Z,63.40
2023-03-04T06:38:59.544Z,60.00
2023-03-04T06:42:01.710Z,52.57
2023-03-04T06:45:04.796Z,61.67
2023-03-04T06:48:07.068Z,55.40
2023-03-04T06:51:11.055Z,55.28
2023-03-04T06:54:13.159Z,61.08
2023-03-04T06:57:15.312Z,62.17
2023-03-04T07:00:18.268Z,50.25
2023-03-04T07:03:20.343Z,58.90
2023-03-04T07:27:15.440Z,46.00
2023-03-04T07:30:17.816Z,71.72
2023-03-04T07:33:19.960Z,73.25
2023-03-04T07:36:22.528Z,85.57
2023-03-04T07:39:25.259Z,83.63
2023-03-04T07:42:28.004Z,57.33
2023-03-04T07:45:38.002Z,75.05
2023-03-04T07:48:41.881Z,67.22
2023-03-04T07:51:47.574Z,67.77
2023-03-04T07:54:51.383Z,63.65
2023-03-04T07:57:53.625Z,59.55
2023-03-04T08:00:55.720Z,63.78
2023-03-04T08:03:59.201Z,60.30
2023-03-04T08:07:01.258Z,68.83
2023-03-04T08:10:04.108Z,73.20
2023-03-04T08:13:07.661Z,61.05
2023-03-04T08:16:15.651Z,56.05
2023-03-04T08:19:17.818Z,48.47
2023-03-04T08:22:19.880Z,33.80
2023-03-04T08:25:21.959Z,59.92
2023-03-04T08:28:24.294Z,61.97
2023-03-04T08:31:27.027Z,56.28
2023-03-04T08:34:29.347Z,66.90
2023-03-04T08:37:31.736Z,65.23
2023-03-04T08:41:06.145Z,71.65
2023-03-04T08:44:10.947Z,50.80
2023-03-04T08:47:13.554Z,65.68
2023-03-04T08:50:15.612Z,64.00
2023-03-04T08:53:18.643Z,66.60
2023-03-04T08:56:20.921Z,55.90
2023-03-04T08:59:23.291Z,62.13
2023-03-04T09:02:25.836Z,68.40
2023-03-04T09:05:29.468Z,59.20
2023-03-04T09:08:33.508Z,76.77
2023-03-04T09:11:36.069Z,75.25
2023-03-04T09:14:38.328Z,78.90
2023-03-04T09:17:41.333Z,81.45
2023-03-04T09:20:44.310Z,56.88
2023-03-04T09:23:46.759Z,69.87
2023-03-04T09:26:55.220Z,66.55
2023-03-04T09:29:57.331Z,59.03
2023-03-04T09:32:59.461Z,65.35
2023-03-04T09:36:01.652Z,82.13
2023-03-04T09:39:04.655Z,76.43
2023-03-04T09:42:09.380Z,71.15
2023-03-04T09:45:16.515Z,60.95
2023-03-04T09:48:24.901Z,65.78
2023-03-04T09:51:42.072Z,69.22
2023-03-04T09:55:15.666Z,72.53
2023-03-04T09:58:32.923Z,77.47
2023-03-04T10:01:42.473Z,65.18
2023-03-04T10:07:58.908Z,61.90
2023-03-04T10:11:03.755Z,73.70
2023-03-04T10:14:32.775Z,75.88
2023-03-04T10:17:43.016Z,77.00
2023-03-04T10:20:56.519Z,73.43
2023-03-04T10:24:05.675Z,63.20
2023-03-04T10:27:13.766Z,49.20
2023-03-04T10:30:30.671Z,79.70
2023-03-04T10:33:36.168Z,82.22
2023-03-04T10:36:50.015Z,75.93
2023-03-04T10:39:52.123Z,74.32
2023-03-04T10:42:54.886Z,72.00
2023-03-04T10:46:01.395Z,75.95
2023-03-04T10:49:04.010Z,68.00
2023-03-04T10:52:46.417Z,88.85
2023-03-04T10:55:48.552Z,69.80
2023-03-04T10:58:50.695Z,76.03
2023-03-04T11:01:54.739Z,72.07
2023-03-04T11:05:11.526Z,69.70
2023-03-04T11:08:19.703Z,67.97
2023-03-04T11:11:34.641Z,93.75
2023-03-04T11:14:46.099Z,67.77
2023-03-04T11:17:54.003Z,66.72
2023-03-04T11:20:57.891Z,61.38
2023-03-04T11:24:29.547Z,58.00
2023-03-04T11:27:38.389Z,60.58
2023-03-04T11:30:58.400Z,63.73
2023-03-04T11:34:30.382Z,59.50
2023-03-04T11:37:42.545Z,58.53
2023-03-04T11:40:50.198Z,63.72
2023-03-04T11:43:52.524Z,56.17
2023-03-04T11:47:10.314Z,57.83
2023-03-04T11:50:23.397Z,52.20
2023-03-04T11:53:51.793Z,58.25
2023-03-04T11:57:00.291Z,59.95
2023-03-04T12:00:30.225Z,59.33
2023-03-04T12:03:44.028Z,57.87
2023-03-04T12:06:48.787Z,62.60
2023-03-04T12:10:10.262Z,64.68
2023-03-04T12:13:24.114Z,63.70
2023-03-04T12:16:39.540Z,62.25
2023-03-04T12:20:15.489Z,58.63
2023-03-04T12:23:46.267Z,57.10
2023-03-04T12:27:01.319Z,55.95
2023-03-04T12:30:08.104Z,66.30
2023-03-04T12:33:35.230Z,54.40
2023-03-04T12:36:58.936Z,46.43
2023-03-04T12:40:30.397Z,53.83
2023-03-04T12:43:54.125Z,48.13
2023-03-04T12:47:12.860Z,55.10
2023-03-04T12:50:33.434Z,53.20
2023-03-04T12:54:02.897Z,51.40
2023-03-04T12:57:09.198Z,48.95
2023-03-04T13:00:33.142Z,53.15
2023-03-04T13:03:44.653Z,49.08
2023-03-04T13:06:54.891Z,46.47
2023-03-04T13:10:15.106Z,49.10
2023-03-04T13:13:32.415Z,45.58
2023-03-04T13:16:41.520Z,39.47
2023-03-04T13:19:57.375Z,44.42
2023-03-04T13:23:14.798Z,45.53
2023-03-04T13:26:21.771Z,40.47
2023-03-04T13:29:24.323Z,39.08
2023-03-04T13:32:38.580Z,29.90
2023-03-04T13:35:50.070Z,29.50
2023-03-04T13:39:14.645Z,20.80
2023-03-04T13:42:52.475Z,18.87
2023-03-04T13:45:54.929Z,17.67
2023-03-04T13:48:57.138Z,15.98
2023-03-04T13:52:19.520Z,20.15
2023-03-04T13:55:42.635Z,18.05
2023-03-04T13:58:46.571Z,26.83
2023-03-04T14:01:52.834Z,25.98
2023-03-04T14:04:54.871Z,19.75
2023-03-04T14:07:56.916Z,18.90
2023-03-04T14:10:58.965Z,28.52
2023-03-04T14:14:05.852Z,21.10
2023-03-04T14:17:17.791Z,30.55
2023-03-04T14:20:33.507Z,29.50
2023-03-04T14:23:36.493Z,22.98
2023-03-04T14:26:39.342Z,14.25
2023-03-04T14:29:41.687Z,19.57
2023-03-04T14:32:43.827Z,13.90
2023-03-04T14:35:52.182Z,16.38
2023-03-04T14:38:59.013Z,12.82
2023-03-04T14:42:09.371Z,12.40
2023-03-04T14:45:16.517Z,20.53
2023-03-04T14:48:25.218Z,16.95
2023-03-04T14:51:41.872Z,14.45
2023-03-04T14:54:44.095Z,21.88
2023-03-04T14:57:58.298Z,25.27
2023-03-04T15:01:19.678Z,25.00
2023-03-04T15:04:22.722Z,25.90
2023-03-04T15:07:31.898Z,21.92
2023-03-04T15:10:37.279Z,20.30
2023-03-04T15:13:51.420Z,17.50
2023-03-04T15:16:56.940Z,14.33
2023-03-04T15:20:27.937Z,19.52
2023-03-04T15:23:32.374Z,18.10
2023-03-04T15:26:39.425Z,18.67
2023-03-04T15:29:41.787Z,16.15
2023-03-04T15:32:43.917Z,17.40
2023-03-04T15:35:56.310Z,16.13
2023-03-04T15:38:58.568Z,14.80
2023-03-04T15:42:01.074Z,20.00
2023-03-04T15:45:11.140Z,25.05
2023-03-04T15:48:15.752Z,75.10
2023-03-04T15:51:23.106Z,55.83
2023-03-04T15:54:29.001Z,33.45
2023-03-04T15:57:31.769Z,19.35
2023-03-04T16:00:34.737Z,22.50
2023-03-04T16:03:37.393Z,21.70
2023-03-04T16:06:39.519Z,22.77
2023-03-04T16:09:41.833Z,20.17
2023-03-04T16:12:44.280Z,23.25
2023-03-04T16:15:47.447Z,19.33
2023-03-04T16:18:49.799Z,23.17
2023-03-04T16:21:52.352Z,30.50
2023-03-04T16:24:55.502Z,35.55
2023-03-04T16:28:04.158Z,29.20
2023-03-04T16:31:06.643Z,42.30
2023-03-04T16:34:09.286Z,32.37
2023-03-04T16:37:17.604Z,34.72
2023-03-04T16:40:24.331Z,39.95
2023-03-04T16:43:27.920Z,41.28
2023-03-04T16:46:30.347Z,100.88
2023-03-04T16:49:32.826Z,89.80
2023-03-04T16:52:35.162Z,98.95
2023-03-04T16:55:37.596Z,80.50
2023-03-04T16:58:40.412Z,46.30
2023-03-04T17:01:43.365Z,31.02
2023-03-04T17:04:46.884Z,36.33
2023-03-04T17:07:49.175Z,28.52
2023-03-04T17:10:52.590Z,26.80
2023-03-04T17:13:54.898Z,28.00
2023-03-04T17:16:57.687Z,27.30
2023-03-04T17:19:59.994Z,34.57
2023-03-04T17:23:08.087Z,33.53
2023-03-04T17:26:10.528Z,32.80
2023-03-04T17:29:12.617Z,35.97
2023-03-04T17:32:16.672Z,32.45
2023-03-04T17:35:18.936Z,31.90
2023-03-04T17:38:21.305Z,29.13
2023-03-04T17:41:24.993Z,33.35
2023-03-04T17:44:27.341Z,31.55
2023-03-04T17:47:29.785Z,33.50
2023-03-04T17:50:32.099Z,30.17
2023-03-04T17:53:34.667Z,29.08
2023-03-04T17:56:39.357Z,36.40
2023-03-04T17:59:41.840Z,45.30
2023-03-04T18:02:43.968Z,41.03
2023-03-04T18:05:46.339Z,38.93
2023-03-04T18:08:49.157Z,50.92
2023-03-04T18:11:51.871Z,59.63
2023-03-04T18:14:54.208Z,29.33
2023-03-04T18:17:56.516Z,55.13
2023-03-04T18:21:00.429Z,46.97
2023-03-04T18:24:03.206Z,53.28
2023-03-04T18:27:05.639Z,60.90
2023-03-04T18:30:13.586Z,60.90
2023-03-04T18:33:15.819Z,51.85
2023-03-04T18:36:18.450Z,63.30
2023-03-04T18:39:20.798Z,44.25
2023-03-04T18:42:23.235Z,54.58
2023-03-04T18:45:26.487Z,58.85
2023-03-04T18:48:31.507Z,54.55
2023-03-04T18:51:34.792Z,45.00
2023-03-04T18:54:37.284Z,60.42
2023-03-04T18:57:42.038Z,53.00
2023-03-04T19:00:44.897Z,59.63
2023-03-04T19:03:48.565Z,51.65
2023-03-04T19:06:51.953Z,55.30
2023-03-04T19:09:55.378Z,50.00
2023-03-04T19:12:59.706Z,50.92
2023-03-04T19:16:02.348Z,40.92
2023-03-04T19:19:04.800Z,61.80
2023-03-04T19:22:07.232Z,61.60
2023-03-04T19:25:10.652Z,55.00
2023-03-04T19:28:13.030Z,42.55
2023-03-04T19:31:15.867Z,39.55
2023-03-04T19:34:18.762Z,24.65
2023-03-04T19:37:21.174Z,22.90
2023-03-04T19:40:24.792Z,11.30
2023-03-04T19:43:32.212Z,11.80
2023-03-04T19:46:34.710Z,13.77
2023-03-04T19:49:37.089Z,12.88
2023-03-04T19:52:39.582Z,9.83
2023-03-04T19:56:21.754Z,10.75
2023-03-04T20:00:24.356Z,9.07
2023-03-04T20:03:46.423Z,8.93
2023-03-04T20:06:50.953Z,7.82
2023-03-04T20:09:55.969Z,11.13
2023-03-04T20:12:59.093Z,8.68
2023-03-04T20:16:01.425Z,6.30
2023-03-04T20:19:03.949Z,10.10
2023-03-04T20:22:07.115Z,9.98
2023-03-04T20:25:10.475Z,5.90
2023-03-04T20:28:13.236Z,6.63
2023-03-04T20:31:26.051Z,8.27
2023-03-04T20:34:28.410Z,6.88
2023-03-04T20:37:32.208Z,5.63
2023-03-04T20:40:36.675Z,4.37
2023-03-04T20:43:38.888Z,9.45
2023-03-04T20:46:45.268Z,8.82
2023-03-04T20:49:47.704Z,7.85
2023-03-04T20:52:50.212Z,11.85
2023-03-04T20:55:52.882Z,9.67
2023-03-04T20:58:56.949Z,9.60
2023-03-04T21:01:59.942Z,6.47
2023-03-04T21:05:02.424Z,7.88
2023-03-04T21:08:04.920Z,9.68
2023-03-04T21:11:10.533Z,8.63
2023-03-04T21:14:19.634Z,5.72
2023-03-04T21:17:24.597Z,7.00
2023-03-04T21:20:26.892Z,4.57
2023-03-04T21:23:29.226Z,6.80
2023-03-04T21:26:31.263Z,6.27
2023-03-04T21:29:33.656Z,5.68
2023-03-04T21:32:35.850Z,8.60
2023-03-04T21:35:38.050Z,8.15
2023-03-04T21:38:41.862Z,7.10
2023-03-04T21:41:44.996Z,5.20
2023-03-04T21:44:50.108Z,6.95
2023-03-04T21:47:53.352Z,8.15
2023-03-04T21:50:55.400Z,6.25
2023-03-04T21:53:57.914Z,7.93
2023-03-04T21:57:00.420Z,7.63
2023-03-04T22:00:03.747Z,5.43
2023-03-04T22:03:14.171Z,9.98
2023-03-04T22:06:21.936Z,9.35
2023-03-04T22:09:24.238Z,11.63
2023-03-04T22:12:26.388Z,13.23
2023-03-04T22:15:28.378Z,10.63
2023-03-04T22:18:31.394Z,10.68
2023-03-04T22:21:33.507Z,11.48
2023-03-04T22:24:35.571Z,11.88
2023-03-04T22:27:37.750Z,13.57
2023-03-04T22:30:39.911Z,12.00
2023-03-04T22:33:42.172Z,18.05
2023-03-04T22:36:46.394Z,9.02
2023-03-04T22:39:48.679Z,13.10
2023-03-04T22:42:51.238Z,12.10
2023-03-04T22:45:54.419Z,14.25
2023-03-04T22:48:59.423Z,10.85
2023-03-04T22:52:01.744Z,11.98
2023-03-04T22:55:04.138Z,13.73
2023-03-04T22:58:06.227Z,14.90
2023-03-04T23:01:09.056Z,14.45
2023-03-04T23:04:11.304Z,16.27
2023-03-04T23:07:13.454Z,13.80
2023-03-04T23:10:19.184Z,11.18
2023-03-04T23:13:21.438Z,9.77
2023-03-04T23:16:24.783Z,13.05
2023-03-04T23:19:27.043Z,11.38
2023-03-04T23:22:29.228Z,13.75
2023-03-04T23:25:31.379Z,10.70
2023-03-04T23:28:33.464Z,10.87
2023-03-04T23:31:35.970Z,14.80
2023-03-04T23:34:38.242Z,10.10
2023-03-04T23:37:40.429Z,12.85
2023-03-04T23:41:43.765Z,11.02
2023-03-04T23:51:27.188Z,12.48
2023-03-04T23:55:24.809Z,10.13
2023-03-04T23:58:27.264Z,9.18
